Mazy — 9HB2808 — position and weather

sailwx.info

Track history (hours):
 
Tides and Currents Weather Stations Pressure Air Temp Water Temp Dewpoint Dewpoint Depression Visibility Wind Speed Wind Dir Waves Ship Positions

Mazy

Last reported at 2016-Aug-30 10:33 UTC. Time now 2016-Aug-30 10:57 UTC.
Position N 37°27' E 025°20'.

Length 39 m; draft 2.3 m.

Type: Pleasure craft. MMSI: 229043000.

Date/timePositionNaut miles runAvg speedWind from/ knotsBaromVisibWave heightAir tempDewpointWater temp
2016-Aug-30 10:33N 37°27' E 025°20'0 0.0
2016-Aug-30 09:30N 37°27' E 025°20'0 0.0
2016-Aug-30 07:24N 37°27' E 025°20'0 0.0
2016-Aug-30 06:24N 37°27' E 025°20'0 0.0
2016-Aug-30 05:30N 37°27' E 025°20'0 0.0
2016-Aug-30 04:30N 37°27' E 025°20'0 0.0
2016-Aug-30 03:30N 37°27' E 025°20'0 0.0
2016-Aug-30 02:24N 37°27' E 025°20'0 0.0
2016-Aug-30 00:33N 37°27' E 025°20'0 0.0
2016-Aug-29 23:30N 37°27' E 025°20'0 0.0
2016-Aug-29 21:18N 37°27' E 025°20'0 0.0
2016-Aug-29 20:30N 37°27' E 025°20'0 0.0
2016-Aug-29 19:30N 37°27' E 025°20'0 0.0
2016-Aug-29 18:30N 37°27' E 025°20'0 0.0
2016-Aug-29 17:24N 37°27' E 025°20'0 0.0
2016-Aug-29 16:30N 37°27' E 025°20'0 0.0
2016-Aug-29 15:30N 37°27' E 025°20'0 0.0
2016-Aug-29 14:24N 37°27' E 025°20'0 0.0
2016-Aug-29 13:24N 37°27' E 025°20'0 0.0
2016-Aug-29 12:30N 37°27' E 025°20'0 0.0
2016-Aug-29 11:24N 37°27' E 025°20'0 0.0
2016-Aug-29 10:30N 37°27' E 025°20'0 0.0
2016-Aug-29 09:30N 37°27' E 025°20'0 0.0
2016-Aug-29 08:30N 37°27' E 025°20'0 0.0
2016-Aug-29 07:30N 37°27' E 025°20'0 0.0
2016-Aug-29 06:24N 37°27' E 025°20'0 0.0
2016-Aug-29 04:30N 37°27' E 025°20'0 0.0
2016-Aug-29 03:30N 37°27' E 025°20'0 0.0
2016-Aug-29 02:33N 37°27' E 025°20'0 0.0
2016-Aug-29 01:30N 37°27' E 025°20'0 0.0
2016-Aug-29 00:30N 37°27' E 025°20'0 0.0
2016-Aug-28 23:30N 37°27' E 025°20'0 0.0
2016-Aug-28 22:30N 37°27' E 025°20'0 0.0
2016-Aug-28 21:30N 37°27' E 025°20'0 0.0
2016-Aug-28 20:30N 37°27' E 025°20'0 0.0
2016-Aug-28 19:24N 37°27' E 025°20'0 0.0
2016-Aug-28 18:24N 37°27' E 025°20'0 0.0
2016-Aug-28 17:30N 37°27' E 025°20'0 0.0
2016-Aug-28 16:33N 37°27' E 025°20'0 0.0
2016-Aug-28 15:30N 37°27' E 025°20'0 0.0
2016-Aug-28 14:30N 37°27' E 025°20'0 0.0
2016-Aug-28 13:33N 37°27' E 025°20'3 3.2
2016-Aug-28 12:33N 37°24' E 025°19'2 1.6
2016-Aug-28 11:32N 37°25' E 025°20'0 0.0
2016-Aug-28 10:32N 37°25' E 025°20'0 0.0
2016-Aug-28 09:32N 37°25' E 025°20'0 0.0
2016-Aug-28 08:29N 37°25' E 025°20'0 0.0
2016-Aug-28 07:32N 37°25' E 025°20'0 0.0
2016-Aug-28 06:32N 37°25' E 025°20'0 0.0
2016-Aug-28 05:32N 37°25' E 025°20'3 2.7
2016-Aug-28 04:34N 37°22' E 025°20'1111.0
2016-Aug-28 03:34N 37°11' E 025°19'  
2016-Aug-22 06:33N 37°13' E 024°50'1411.8
2016-Aug-22 05:21N 37°18' E 025°06'911.2
2016-Aug-22 04:33N 37°22' E 025°16'4 4.3
2016-Aug-22 03:33N 37°25' E 025°20'0 0.0
2016-Aug-22 02:33N 37°25' E 025°20'0 0.0
2016-Aug-22 01:33N 37°25' E 025°20'0 0.0
2016-Aug-22 00:30N 37°25' E 025°20'0 0.0
2016-Aug-21 23:33N 37°25' E 025°20'0 0.0
2016-Aug-21 22:30N 37°25' E 025°20'0 0.0
2016-Aug-21 21:33N 37°25' E 025°20'0 0.0
2016-Aug-21 20:33N 37°25' E 025°20'0 0.0
2016-Aug-21 19:33N 37°25' E 025°20'0 0.0
2016-Aug-21 18:33N 37°25' E 025°20'0 0.0
2016-Aug-21 17:33N 37°25' E 025°20'0 0.0
2016-Aug-21 16:33N 37°25' E 025°20'0 0.0
2016-Aug-21 15:33N 37°25' E 025°20'0 0.0
2016-Aug-21 14:33N 37°25' E 025°20'0 0.0
2016-Aug-21 13:33N 37°25' E 025°20'0 0.0
2016-Aug-21 12:33N 37°25' E 025°20'0 0.0
2016-Aug-21 11:33N 37°25' E 025°20'0 0.0
2016-Aug-21 10:30N 37°25' E 025°20'0 0.0
2016-Aug-21 09:27N 37°25' E 025°20'0 0.0
2016-Aug-21 08:33N 37°25' E 025°20'0 0.0
2016-Aug-21 07:30N 37°25' E 025°20'0 0.0
2016-Aug-21 06:33N 37°25' E 025°20'0 0.0
2016-Aug-21 05:33N 37°25' E 025°20'0 0.0
2016-Aug-21 04:33N 37°25' E 025°20'0 0.0
2016-Aug-21 03:33N 37°25' E 025°20'0 0.0
2016-Aug-21 02:30N 37°25' E 025°20'0 0.0
2016-Aug-21 01:33N 37°25' E 025°20'0 0.0
2016-Aug-21 00:33N 37°25' E 025°20'0 0.0
2016-Aug-20 23:33N 37°25' E 025°20'0 0.0
2016-Aug-20 22:33N 37°25' E 025°20'0 0.0
2016-Aug-20 21:33N 37°25' E 025°20'0 0.0
2016-Aug-20 20:33N 37°25' E 025°20'0 0.0
2016-Aug-20 19:32N 37°25' E 025°20'0 0.0
2016-Aug-20 18:29N 37°25' E 025°20'0 0.0
2016-Aug-20 17:32N 37°25' E 025°20'0 0.0
2016-Aug-20 16:32N 37°25' E 025°20'0 0.0
2016-Aug-20 15:32N 37°25' E 025°20'0 0.0
2016-Aug-20 14:31N 37°25' E 025°20'0 0.0
2016-Aug-20 13:31N 37°25' E 025°20'0 0.0
2016-Aug-20 12:31N 37°25' E 025°20'0 0.0
2016-Aug-20 11:31N 37°25' E 025°20'  
Track history (hours):
 
Tides and Currents Weather Stations Pressure Air Temp Water Temp Dewpoint Dewpoint Depression Visibility Wind Speed Wind Dir Waves Ship Positions

Mazy

Last reported at 2016-Aug-30 10:33 UTC. Time now 2016-Aug-30 10:57 UTC.
Position N 37°27' E 025°20'.

Length 39 m; draft 2.3 m.

Type: Pleasure craft. MMSI: 229043000.

Date/timePositionNaut miles runAvg speedWind from/ knotsBaromVisibWave heightAir tempDewpointWater temp
2016-Aug-30 10:33N 37°27' E 025°20'0 0.0
2016-Aug-30 09:30N 37°27' E 025°20'0 0.0
2016-Aug-30 07:24N 37°27' E 025°20'0 0.0
2016-Aug-30 06:24N 37°27' E 025°20'0 0.0
2016-Aug-30 05:30N 37°27' E 025°20'0 0.0
2016-Aug-30 04:30N 37°27' E 025°20'0 0.0
2016-Aug-30 03:30N 37°27' E 025°20'0 0.0
2016-Aug-30 02:24N 37°27' E 025°20'0 0.0
2016-Aug-30 00:33N 37°27' E 025°20'0 0.0
2016-Aug-29 23:30N 37°27' E 025°20'0 0.0
2016-Aug-29 21:18N 37°27' E 025°20'0 0.0
2016-Aug-29 20:30N 37°27' E 025°20'0 0.0
2016-Aug-29 19:30N 37°27' E 025°20'0 0.0
2016-Aug-29 18:30N 37°27' E 025°20'0 0.0
2016-Aug-29 17:24N 37°27' E 025°20'0 0.0
2016-Aug-29 16:30N 37°27' E 025°20'0 0.0
2016-Aug-29 15:30N 37°27' E 025°20'0 0.0
2016-Aug-29 14:24N 37°27' E 025°20'0 0.0
2016-Aug-29 13:24N 37°27' E 025°20'0 0.0
2016-Aug-29 12:30N 37°27' E 025°20'0 0.0
2016-Aug-29 11:24N 37°27' E 025°20'0 0.0
2016-Aug-29 10:30N 37°27' E 025°20'0 0.0
2016-Aug-29 09:30N 37°27' E 025°20'0 0.0
2016-Aug-29 08:30N 37°27' E 025°20'0 0.0
2016-Aug-29 07:30N 37°27' E 025°20'0 0.0
2016-Aug-29 06:24N 37°27' E 025°20'0 0.0
2016-Aug-29 04:30N 37°27' E 025°20'0 0.0
2016-Aug-29 03:30N 37°27' E 025°20'0 0.0
2016-Aug-29 02:33N 37°27' E 025°20'0 0.0
2016-Aug-29 01:30N 37°27' E 025°20'0 0.0
2016-Aug-29 00:30N 37°27' E 025°20'0 0.0
2016-Aug-28 23:30N 37°27' E 025°20'0 0.0
2016-Aug-28 22:30N 37°27' E 025°20'0 0.0
2016-Aug-28 21:30N 37°27' E 025°20'0 0.0
2016-Aug-28 20:30N 37°27' E 025°20'0 0.0
2016-Aug-28 19:24N 37°27' E 025°20'0 0.0
2016-Aug-28 18:24N 37°27' E 025°20'0 0.0
2016-Aug-28 17:30N 37°27' E 025°20'0 0.0
2016-Aug-28 16:33N 37°27' E 025°20'0 0.0
2016-Aug-28 15:30N 37°27' E 025°20'0 0.0
2016-Aug-28 14:30N 37°27' E 025°20'0 0.0
2016-Aug-28 13:33N 37°27' E 025°20'3 3.2
2016-Aug-28 12:33N 37°24' E 025°19'2 1.6
2016-Aug-28 11:32N 37°25' E 025°20'0 0.0
2016-Aug-28 10:32N 37°25' E 025°20'0 0.0
2016-Aug-28 09:32N 37°25' E 025°20'0 0.0
2016-Aug-28 08:29N 37°25' E 025°20'0 0.0
2016-Aug-28 07:32N 37°25' E 025°20'0 0.0
2016-Aug-28 06:32N 37°25' E 025°20'0 0.0
2016-Aug-28 05:32N 37°25' E 025°20'3 2.7
2016-Aug-28 04:34N 37°22' E 025°20'1111.0
2016-Aug-28 03:34N 37°11' E 025°19'  
2016-Aug-22 06:33N 37°13' E 024°50'1411.8
2016-Aug-22 05:21N 37°18' E 025°06'911.2
2016-Aug-22 04:33N 37°22' E 025°16'4 4.3
2016-Aug-22 03:33N 37°25' E 025°20'0 0.0
2016-Aug-22 02:33N 37°25' E 025°20'0 0.0
2016-Aug-22 01:33N 37°25' E 025°20'0 0.0
2016-Aug-22 00:30N 37°25' E 025°20'0 0.0
2016-Aug-21 23:33N 37°25' E 025°20'0 0.0
2016-Aug-21 22:30N 37°25' E 025°20'0 0.0
2016-Aug-21 21:33N 37°25' E 025°20'0 0.0
2016-Aug-21 20:33N 37°25' E 025°20'0 0.0
2016-Aug-21 19:33N 37°25' E 025°20'0 0.0
2016-Aug-21 18:33N 37°25' E 025°20'0 0.0
2016-Aug-21 17:33N 37°25' E 025°20'0 0.0
2016-Aug-21 16:33N 37°25' E 025°20'0 0.0
2016-Aug-21 15:33N 37°25' E 025°20'0 0.0
2016-Aug-21 14:33N 37°25' E 025°20'0 0.0
2016-Aug-21 13:33N 37°25' E 025°20'0 0.0
2016-Aug-21 12:33N 37°25' E 025°20'0 0.0
2016-Aug-21 11:33N 37°25' E 025°20'0 0.0
2016-Aug-21 10:30N 37°25' E 025°20'0 0.0
2016-Aug-21 09:27N 37°25' E 025°20'0 0.0
2016-Aug-21 08:33N 37°25' E 025°20'0 0.0
2016-Aug-21 07:30N 37°25' E 025°20'0 0.0
2016-Aug-21 06:33N 37°25' E 025°20'0 0.0
2016-Aug-21 05:33N 37°25' E 025°20'0 0.0
2016-Aug-21 04:33N 37°25' E 025°20'0 0.0
2016-Aug-21 03:33N 37°25' E 025°20'0 0.0
2016-Aug-21 02:30N 37°25' E 025°20'0 0.0
2016-Aug-21 01:33N 37°25' E 025°20'0 0.0
2016-Aug-21 00:33N 37°25' E 025°20'0 0.0
2016-Aug-20 23:33N 37°25' E 025°20'0 0.0
2016-Aug-20 22:33N 37°25' E 025°20'0 0.0
2016-Aug-20 21:33N 37°25' E 025°20'0 0.0
2016-Aug-20 20:33N 37°25' E 025°20'0 0.0
2016-Aug-20 19:32N 37°25' E 025°20'0 0.0
2016-Aug-20 18:29N 37°25' E 025°20'0 0.0
2016-Aug-20 17:32N 37°25' E 025°20'0 0.0
2016-Aug-20 16:32N 37°25' E 025°20'0 0.0
2016-Aug-20 15:32N 37°25' E 025°20'0 0.0
2016-Aug-20 14:31N 37°25' E 025°20'0 0.0
2016-Aug-20 13:31N 37°25' E 025°20'0 0.0
2016-Aug-20 12:31N 37°25' E 025°20'0 0.0
2016-Aug-20 11:31N 37°25' E 025°20'  

Dump ship's entire track history